Time,TemperatureF,DewpointF,PressureIn,WindDirection,WindDirectionDegrees,WindSpeedMPH,WindSpeedGustMPH,Humidity,HourlyPrecipIn,Conditions,Clouds,dailyrainin,SoftwareType,DateUTC
2013-10-04 00:32:00,66.6,63.0,29.34,South,178,0.0,0.0,88,0.00,,,0.00,meteohub,2013-10-04 04:32:00,
2013-10-04 00:34:00,66.4,63.0,29.34,South,178,0.0,0.0,89,0.00,,,0.00,meteohub,2013-10-04 04:34:00,
2013-10-04 00:35:00,66.4,63.0,29.34,South,178,0.0,0.0,89,0.00,,,0.00,meteohub,2013-10-04 04:35:00,
2013-10-04 00:36:00,66.4,63.0,29.34,South,178,0.0,0.0,89,0.00,,,0.00,meteohub,2013-10-04 04:36:00,
2013-10-04 00:38:00,66.4,63.0,29.34,South,178,0.0,0.0,89,0.00,,,0.00,meteohub,2013-10-04 04:38:00,
2013-10-04 00:42:00,66.4,63.0,29.34,South,178,0.0,0.0,89,0.00,,,0.00,meteohub,2013-10-04 04:42:00,
2013-10-04 00:43:00,66.4,63.0,29.34,South,178,0.0,0.0,89,0.00,,,0.00,meteohub,2013-10-04 04:43:00,
2013-10-04 00:44:00,66.4,63.0,29.34,South,178,0.0,0.0,89,0.00,,,0.00,meteohub,2013-10-04 04:44:00,
2013-10-04 00:46:00,66.2,62.8,29.34,South,178,0.0,0.0,89,0.00,,,0.00,meteohub,2013-10-04 04:46:00,
2013-10-04 00:47:00,66.2,62.8,29.34,South,178,0.0,0.0,89,0.00,,,0.00,meteohub,2013-10-04 04:47:00,
2013-10-04 00:48:00,66.2,62.8,29.34,South,178,0.0,0.0,89,0.00,,,0.00,meteohub,2013-10-04 04:48:00,
2013-10-04 00:50:00,66.2,62.8,29.34,South,178,0.0,0.0,89,0.00,,,0.00,meteohub,2013-10-04 04:50:00,
2013-10-04 00:54:00,66.0,62.6,29.34,South,178,0.0,0.0,89,0.00,,,0.00,meteohub,2013-10-04 04:54:00,
2013-10-04 00:55:00,66.0,62.6,29.34,South,178,0.0,0.0,89,0.00,,,0.00,meteohub,2013-10-04 04:55:00,
2013-10-04 00:56:00,66.0,62.6,29.34,South,178,0.0,0.0,89,0.00,,,0.00,meteohub,2013-10-04 04:56:00,
2013-10-04 01:00:00,65.8,62.4,29.34,South,178,0.0,0.0,89,0.00,,,0.00,meteohub,2013-10-04 05:00:00,
2013-10-04 01:02:00,65.8,62.4,29.34,South,178,0.0,0.0,89,0.00,,,0.00,meteohub,2013-10-04 05:02:00,
2013-10-04 01:03:00,65.8,62.4,29.34,South,178,0.0,0.0,89,0.00,,,0.00,meteohub,2013-10-04 05:03:00,
2013-10-04 01:06:00,65.7,62.2,29.33,South,178,0.0,0.0,89,0.00,,,0.00,meteohub,2013-10-04 05:06:00,
2013-10-04 01:10:00,65.7,62.2,29.34,South,178,0.0,0.0,89,0.00,,,0.00,meteohub,2013-10-04 05:10:00,
2013-10-04 01:11:00,65.7,62.2,29.34,South,178,0.0,0.0,89,0.00,,,0.00,meteohub,2013-10-04 05:11:00,
2013-10-04 01:14:00,65.7,62.6,29.34,South,178,0.0,0.0,90,0.00,,,0.00,meteohub,2013-10-04 05:14:00,
2013-10-04 01:16:00,65.7,62.6,29.34,South,178,0.0,0.0,90,0.00,,,0.00,meteohub,2013-10-04 05:16:00,
2013-10-04 01:17:00,65.7,62.6,29.34,South,178,0.0,0.0,90,0.00,,,0.00,meteohub,2013-10-04 05:17:00,
2013-10-04 01:18:00,65.5,62.4,29.34,South,178,0.0,0.0,90,0.00,,,0.00,meteohub,2013-10-04 05:18:00,
2013-10-04 01:25:00,65.5,62.4,29.34,South,178,0.0,0.0,90,0.00,,,0.00,meteohub,2013-10-04 05:25:00,
2013-10-04 01:27:00,65.3,62.2,29.34,South,178,0.0,0.0,90,0.00,,,0.00,meteohub,2013-10-04 05:27:00,
2013-10-04 01:32:00,65.1,62.1,29.33,South,178,0.0,0.0,90,0.00,,,0.00,meteohub,2013-10-04 05:32:00,
2013-10-04 01:37:00,65.1,62.1,29.34,South,178,0.0,0.0,90,0.00,,,0.00,meteohub,2013-10-04 05:37:00,
2013-10-04 01:42:00,64.9,61.9,29.33,South,178,0.0,0.0,90,0.00,,,0.00,meteohub,2013-10-04 05:42:00,
2013-10-04 01:47:00,64.8,61.7,29.33,South,178,0.0,0.0,90,0.00,,,0.00,meteohub,2013-10-04 05:47:00,
2013-10-04 01:52:00,64.8,61.7,29.33,South,178,0.0,0.0,90,0.00,,,0.00,meteohub,2013-10-04 05:52:00,
2013-10-04 01:57:00,64.6,61.5,29.33,South,178,0.0,0.0,90,0.00,,,0.00,meteohub,2013-10-04 05:57:00,
2013-10-04 02:02:00,64.6,61.9,29.33,South,178,0.0,0.0,91,0.00,,,0.00,meteohub,2013-10-04 06:02:00,
2013-10-04 02:07:00,64.6,61.9,29.33,South,178,0.0,0.0,91,0.00,,,0.00,meteohub,2013-10-04 06:07:00,
2013-10-04 02:12:00,64.6,61.9,29.33,South,178,0.0,0.0,91,0.00,,,0.00,meteohub,2013-10-04 06:12:00,
2013-10-04 02:17:00,64.6,62.2,29.33,South,178,0.0,0.0,92,0.00,,,0.00,meteohub,2013-10-04 06:17:00,
2013-10-04 02:22:00,64.8,62.4,29.33,South,178,0.0,0.0,92,0.00,,,0.00,meteohub,2013-10-04 06:22:00,
2013-10-04 02:27:00,64.8,62.4,29.33,South,178,0.0,0.0,92,0.00,,,0.00,meteohub,2013-10-04 06:27:00,
2013-10-04 02:32:00,64.6,62.2,29.33,South,178,0.0,0.0,92,0.00,,,0.00,meteohub,2013-10-04 06:32:00,
2013-10-04 02:37:00,64.6,62.2,29.33,South,178,0.0,0.0,92,0.00,,,0.00,meteohub,2013-10-04 06:37:00,
2013-10-04 02:42:00,64.6,62.4,29.33,South,178,0.0,0.0,93,0.00,,,0.00,meteohub,2013-10-04 06:42:00,
2013-10-04 02:47:00,64.4,62.1,29.33,South,178,0.0,0.0,92,0.00,,,0.00,meteohub,2013-10-04 06:47:00,
2013-10-04 02:52:00,64.2,61.9,29.33,South,178,0.0,0.0,92,0.00,,,0.00,meteohub,2013-10-04 06:52:00,
2013-10-04 02:57:00,64.2,61.9,29.33,South,178,0.0,0.0,92,0.00,,,0.00,meteohub,2013-10-04 06:57:00,
2013-10-04 03:02:00,64.2,62.2,29.33,South,178,0.0,0.0,93,0.00,,,0.00,meteohub,2013-10-04 07:02:00,
2013-10-04 03:07:00,64.2,62.2,29.33,South,178,0.0,0.0,93,0.00,,,0.00,meteohub,2013-10-04 07:07:00,
2013-10-04 03:12:00,64.0,62.1,29.33,South,178,0.0,0.0,93,0.00,,,0.00,meteohub,2013-10-04 07:12:00,
2013-10-04 03:17:00,64.0,62.1,29.33,South,178,0.0,0.0,93,0.00,,,0.00,meteohub,2013-10-04 07:17:00,
2013-10-04 03:22:00,64.0,62.1,29.32,South,178,0.0,0.0,93,0.00,,,0.00,meteohub,2013-10-04 07:22:00,
2013-10-04 03:27:00,63.9,61.9,29.32,South,178,0.0,0.0,93,0.00,,,0.00,meteohub,2013-10-04 07:27:00,
2013-10-04 03:32:00,63.9,61.9,29.32,South,178,0.0,0.0,93,0.00,,,0.00,meteohub,2013-10-04 07:32:00,
2013-10-04 03:37:00,63.9,61.9,29.32,South,178,0.0,0.0,93,0.00,,,0.00,meteohub,2013-10-04 07:37:00,
2013-10-04 03:43:00,63.9,61.9,29.32,South,178,0.0,0.0,93,0.00,,,0.00,meteohub,2013-10-04 07:43:00,
2013-10-04 03:48:00,63.7,61.7,29.32,South,178,0.0,0.0,93,0.00,,,0.00,meteohub,2013-10-04 07:48:00,
2013-10-04 03:53:00,63.7,61.7,29.33,South,178,0.0,0.0,93,0.00,,,0.00,meteohub,2013-10-04 07:53:00,
2013-10-04 03:58:00,63.5,61.5,29.33,South,178,0.0,0.0,93,0.00,,,0.00,meteohub,2013-10-04 07:58:00,
2013-10-04 04:03:00,63.3,61.3,29.32,South,178,0.0,0.0,93,0.00,,,0.00,meteohub,2013-10-04 08:03:00,
2013-10-04 04:08:00,63.3,61.3,29.33,South,178,0.0,0.0,93,0.00,,,0.00,meteohub,2013-10-04 08:08:00,
2013-10-04 04:13:00,63.3,61.5,29.33,South,178,0.0,0.0,94,0.00,,,0.00,meteohub,2013-10-04 08:13:00,
2013-10-04 04:18:00,63.3,61.5,29.32,South,178,0.0,0.0,94,0.00,,,0.00,meteohub,2013-10-04 08:18:00,
2013-10-04 04:23:00,63.3,61.5,29.32,South,178,0.0,0.0,94,0.00,,,0.00,meteohub,2013-10-04 08:23:00,
2013-10-04 04:28:00,63.3,61.5,29.32,South,178,0.0,0.0,94,0.00,,,0.00,meteohub,2013-10-04 08:28:00,
2013-10-04 04:33:00,63.3,61.5,29.32,South,178,0.0,0.0,94,0.00,,,0.00,meteohub,2013-10-04 08:33:00,
2013-10-04 04:38:00,63.3,61.5,29.32,South,178,0.0,0.0,94,0.00,,,0.00,meteohub,2013-10-04 08:38:00,
2013-10-04 04:43:00,63.3,61.5,29.32,South,178,0.0,0.0,94,0.00,,,0.00,meteohub,2013-10-04 08:43:00,
2013-10-04 04:48:00,63.1,61.3,29.32,South,178,0.0,0.0,94,0.00,,,0.00,meteohub,2013-10-04 08:48:00,
2013-10-04 04:53:00,63.1,61.3,29.32,South,178,0.0,0.0,94,0.00,,,0.00,meteohub,2013-10-04 08:53:00,
2013-10-04 04:58:00,63.3,61.5,29.32,South,178,0.0,0.0,94,0.00,,,0.00,meteohub,2013-10-04 08:58:00,
2013-10-04 05:03:00,63.3,61.5,29.32,South,178,0.0,0.0,94,0.00,,,0.00,meteohub,2013-10-04 09:03:00,
2013-10-04 05:08:00,63.3,61.9,29.32,South,178,0.0,0.0,95,0.00,,,0.00,meteohub,2013-10-04 09:08:00,
2013-10-04 05:13:00,63.3,61.9,29.32,South,178,0.0,0.0,95,0.00,,,0.00,meteohub,2013-10-04 09:13:00,
2013-10-04 05:18:00,63.5,62.1,29.33,South,178,0.0,0.0,95,0.00,,,0.00,meteohub,2013-10-04 09:18:00,
2013-10-04 05:23:00,63.7,62.2,29.33,South,178,0.0,0.0,95,0.00,,,0.00,meteohub,2013-10-04 09:23:00,
2013-10-04 05:28:00,63.7,62.2,29.33,South,178,0.0,0.0,95,0.00,,,0.00,meteohub,2013-10-04 09:28:00,
2013-10-04 05:33:00,63.7,62.2,29.33,South,178,0.0,0.0,95,0.00,,,0.00,meteohub,2013-10-04 09:33:00,
2013-10-04 05:38:00,63.7,62.2,29.32,South,178,0.0,0.0,95,0.00,,,0.00,meteohub,2013-10-04 09:38:00,
2013-10-04 05:43:00,63.5,62.1,29.32,South,178,0.0,0.0,95,0.00,,,0.00,meteohub,2013-10-04 09:43:00,
2013-10-04 05:48:00,63.5,62.1,29.32,South,178,0.0,0.0,95,0.00,,,0.00,meteohub,2013-10-04 09:48:00,
2013-10-04 05:53:00,63.5,62.1,29.33,South,178,0.0,0.0,95,0.00,,,0.00,meteohub,2013-10-04 09:53:00,
2013-10-04 05:58:00,63.7,62.2,29.32,South,178,0.0,0.0,95,0.00,,,0.00,meteohub,2013-10-04 09:58:00,
2013-10-04 06:03:00,63.7,62.2,29.33,South,178,0.0,0.0,95,0.00,,,0.00,meteohub,2013-10-04 10:03:00,
2013-10-04 06:08:00,63.9,62.4,29.33,South,178,0.0,0.0,95,0.00,,,0.00,meteohub,2013-10-04 10:08:00,
2013-10-04 06:14:00,63.9,62.4,29.33,South,178,0.0,0.0,95,0.00,,,0.00,meteohub,2013-10-04 10:14:00,
2013-10-04 06:19:00,63.9,62.4,29.33,South,178,0.0,0.0,95,0.00,,,0.00,meteohub,2013-10-04 10:19:00,
2013-10-04 06:24:00,64.0,62.6,29.33,South,178,0.0,0.0,95,0.00,,,0.00,meteohub,2013-10-04 10:24:00,
2013-10-04 06:29:00,64.0,62.6,29.33,South,178,0.0,0.0,95,0.00,,,0.00,meteohub,2013-10-04 10:29:00,
2013-10-04 06:34:00,63.9,62.4,29.34,South,178,0.0,0.0,95,0.00,,,0.00,meteohub,2013-10-04 10:34:00,
2013-10-04 06:39:00,63.9,62.4,29.34,South,178,0.0,0.0,95,0.00,,,0.00,meteohub,2013-10-04 10:39:00,
2013-10-04 06:44:00,63.9,62.4,29.34,South,178,0.0,0.0,95,0.00,,,0.00,meteohub,2013-10-04 10:44:00,
2013-10-04 06:49:00,63.7,62.2,29.34,South,178,0.0,0.0,95,0.00,,,0.00,meteohub,2013-10-04 10:49:00,
2013-10-04 06:54:00,63.7,62.2,29.33,South,178,0.0,0.0,95,0.00,,,0.00,meteohub,2013-10-04 10:54:00,
2013-10-04 06:59:00,63.5,62.1,29.34,South,178,0.0,0.0,95,0.00,,,0.00,meteohub,2013-10-04 10:59:00,
2013-10-04 07:04:00,63.5,62.1,29.34,South,178,0.0,0.0,95,0.00,,,0.00,meteohub,2013-10-04 11:04:00,
2013-10-04 07:09:00,63.5,62.1,29.34,South,178,0.0,0.0,95,0.00,,,0.00,meteohub,2013-10-04 11:09:00,
2013-10-04 07:14:00,63.5,62.1,29.34,South,178,0.0,0.0,95,0.00,,,0.00,meteohub,2013-10-04 11:14:00,
2013-10-04 07:19:00,63.3,61.9,29.33,South,178,0.0,0.0,95,0.00,,,0.00,meteohub,2013-10-04 11:19:00,
2013-10-04 07:24:00,63.3,61.9,29.34,South,178,0.0,0.0,95,0.00,,,0.00,meteohub,2013-10-04 11:24:00,
2013-10-04 07:29:00,63.5,62.4,29.34,South,178,0.0,0.0,96,0.01,,,0.01,meteohub,2013-10-04 11:29:00,
2013-10-04 07:34:00,63.7,62.6,29.34,South,178,0.0,0.0,96,0.01,,,0.01,meteohub,2013-10-04 11:34:00,
2013-10-04 07:39:00,63.7,62.6,29.34,South,178,0.0,0.0,96,0.01,,,0.01,meteohub,2013-10-04 11:39:00,
2013-10-04 07:44:00,63.7,62.6,29.34,South,178,0.0,0.0,96,0.01,,,0.01,meteohub,2013-10-04 11:44:00,
2013-10-04 07:49:00,63.9,62.8,29.34,South,178,0.0,0.0,96,0.01,,,0.01,meteohub,2013-10-04 11:49:00,
2013-10-04 07:54:00,63.7,62.6,29.34,South,178,0.0,0.0,96,0.01,,,0.01,meteohub,2013-10-04 11:54:00,
2013-10-04 07:59:00,63.7,62.6,29.34,South,178,0.0,0.0,96,0.01,,,0.01,meteohub,2013-10-04 11:59:00,
2013-10-04 08:04:00,63.7,62.6,29.34,South,178,0.0,0.0,96,0.01,,,0.01,meteohub,2013-10-04 12:04:00,
2013-10-04 08:09:00,63.7,62.6,29.35,South,178,0.0,0.0,96,0.01,,,0.01,meteohub,2013-10-04 12:09:00,
2013-10-04 08:14:00,63.9,62.8,29.35,South,178,0.0,0.0,96,0.01,,,0.01,meteohub,2013-10-04 12:14:00,
2013-10-04 08:19:00,64.0,63.0,29.34,South,178,0.0,0.0,96,0.01,,,0.01,meteohub,2013-10-04 12:19:00,
2013-10-04 08:24:00,64.2,63.1,29.34,South,178,0.0,0.0,96,0.01,,,0.01,meteohub,2013-10-04 12:24:00,
2013-10-04 08:29:00,64.4,63.5,29.34,South,178,0.0,0.0,97,0.00,,,0.01,meteohub,2013-10-04 12:29:00,
2013-10-04 08:34:00,64.8,63.9,29.35,South,178,0.0,0.0,97,0.00,,,0.01,meteohub,2013-10-04 12:34:00,
2013-10-04 08:39:00,65.3,64.4,29.35,South,178,0.0,0.0,97,0.00,,,0.01,meteohub,2013-10-04 12:39:00,
2013-10-04 08:44:00,65.7,64.8,29.35,South,178,0.0,0.0,97,0.00,,,0.01,meteohub,2013-10-04 12:44:00,
2013-10-04 08:49:00,66.4,65.5,29.35,South,178,0.0,0.0,97,0.00,,,0.01,meteohub,2013-10-04 12:49:00,
2013-10-04 08:54:00,66.9,66.0,29.35,South,178,0.0,1.0,97,0.00,,,0.01,meteohub,2013-10-04 12:54:00,
2013-10-04 08:59:00,67.5,66.6,29.35,South,178,0.0,1.0,97,0.00,,,0.01,meteohub,2013-10-04 12:59:00,
2013-10-04 09:05:00,67.8,66.9,29.36,South,178,0.0,1.0,97,0.00,,,0.01,meteohub,2013-10-04 13:05:00,
2013-10-04 09:10:00,68.2,67.3,29.36,South,185,0.0,1.0,97,0.00,,,0.01,meteohub,2013-10-04 13:10:00,
2013-10-04 09:15:00,68.5,67.6,29.36,South,185,0.0,2.0,97,0.00,,,0.01,meteohub,2013-10-04 13:15:00,
2013-10-04 09:20:00,68.9,67.6,29.36,WNW,291,0.0,2.0,96,0.00,,,0.01,meteohub,2013-10-04 13:20:00,
2013-10-04 09:25:00,69.3,68.0,29.36,WNW,291,0.0,3.0,96,0.00,,,0.01,meteohub,2013-10-04 13:25:00,
2013-10-04 09:30:00,69.6,68.4,29.36,SSW,205,0.0,3.0,96,0.00,,,0.01,meteohub,2013-10-04 13:30:00,
2013-10-04 09:35:00,70.2,68.7,29.36,North,5,0.0,4.0,95,0.00,,,0.01,meteohub,2013-10-04 13:35:00,
2013-10-04 09:40:00,70.5,68.4,29.36,NE,51,1.0,4.0,93,0.00,,,0.01,meteohub,2013-10-04 13:40:00,
2013-10-04 09:45:00,70.9,68.4,29.36,South,174,0.0,2.0,92,0.00,,,0.01,meteohub,2013-10-04 13:45:00,
2013-10-04 09:50:00,71.2,68.5,29.36,South,174,0.0,2.0,91,0.00,,,0.01,meteohub,2013-10-04 13:50:00,
2013-10-04 09:55:00,71.8,68.7,29.36,NW,313,1.0,2.0,90,0.00,,,0.01,meteohub,2013-10-04 13:55:00,
2013-10-04 10:00:00,72.1,68.7,29.36,NW,313,0.0,2.0,89,0.00,,,0.01,meteohub,2013-10-04 14:00:00,
2013-10-04 10:05:00,72.5,68.4,29.36,NW,313,0.0,2.0,87,0.00,,,0.01,meteohub,2013-10-04 14:05:00,
2013-10-04 10:10:00,72.9,68.4,29.36,NW,313,0.0,2.0,86,0.00,,,0.01,meteohub,2013-10-04 14:10:00,
2013-10-04 10:15:00,73.0,68.0,29.36,South,173,1.0,4.0,84,0.00,,,0.01,meteohub,2013-10-04 14:15:00,
2013-10-04 10:20:00,73.0,67.6,29.35,South,173,0.0,4.0,83,0.00,,,0.01,meteohub,2013-10-04 14:20:00,
2013-10-04 10:25:00,73.2,67.8,29.35,South,186,1.0,4.0,83,0.00,,,0.01,meteohub,2013-10-04 14:25:00,
2013-10-04 10:30:00,73.6,68.2,29.35,SW,226,0.0,3.0,83,0.00,,,0.01,meteohub,2013-10-04 14:30:00,
2013-10-04 10:35:00,73.8,68.4,29.35,SW,226,0.0,3.0,83,0.00,,,0.01,meteohub,2013-10-04 14:35:00,
2013-10-04 10:40:00,73.9,68.2,29.35,SW,226,0.0,3.0,82,0.00,,,0.01,meteohub,2013-10-04 14:40:00,
2013-10-04 10:45:00,74.1,67.6,29.35,South,180,2.0,3.0,80,0.00,,,0.01,meteohub,2013-10-04 14:45:00,
2013-10-04 10:50:00,74.1,68.0,29.35,SSW,203,0.0,4.0,81,0.00,,,0.01,meteohub,2013-10-04 14:50:00,
2013-10-04 10:55:00,74.5,68.2,29.35,South,188,3.0,4.0,81,0.00,,,0.01,meteohub,2013-10-04 14:55:00,
2013-10-04 11:00:00,74.8,68.2,29.35,South,181,2.0,4.0,80,0.00,,,0.01,meteohub,2013-10-04 15:00:00,
2013-10-04 11:05:00,74.8,67.5,29.35,WSW,239,0.0,4.0,78,0.00,,,0.01,meteohub,2013-10-04 15:05:00,
2013-10-04 11:10:00,75.0,67.6,29.35,WSW,239,0.0,4.0,78,0.00,,,0.01,meteohub,2013-10-04 15:10:00,
2013-10-04 11:16:00,75.2,67.8,29.35,NW,317,0.0,4.0,78,0.00,,,0.01,meteohub,2013-10-04 15:16:00,
2013-10-04 11:17:00,75.4,68.4,29.35,South,190,4.0,4.0,79,0.00,,,0.01,meteohub,2013-10-04 15:17:00,
2013-10-04 11:22:00,75.7,68.4,29.35,NW,313,1.0,5.0,78,0.00,,,0.01,meteohub,2013-10-04 15:22:00,
2013-10-04 11:27:00,76.5,69.4,29.34,South,179,2.0,5.0,79,0.00,,,0.01,meteohub,2013-10-04 15:27:00,
2013-10-04 11:32:00,76.8,68.4,29.34,WNW,300,1.0,5.0,75,0.00,,,0.01,meteohub,2013-10-04 15:32:00,
2013-10-04 11:37:00,77.0,68.5,29.35,WNW,300,0.0,5.0,75,0.00,,,0.01,meteohub,2013-10-04 15:37:00,
2013-10-04 11:42:00,77.4,68.9,29.35,WNW,300,1.0,4.0,75,0.00,,,0.01,meteohub,2013-10-04 15:42:00,
2013-10-04 11:47:00,77.5,68.9,29.35,WNW,300,0.0,3.0,75,0.00,,,0.01,meteohub,2013-10-04 15:47:00,
2013-10-04 11:52:00,77.7,69.1,29.35,WNW,300,0.0,2.0,75,0.00,,,0.01,meteohub,2013-10-04 15:52:00,
2013-10-04 11:57:00,77.9,68.5,29.34,WNW,300,0.0,3.0,73,0.00,,,0.01,meteohub,2013-10-04 15:57:00,
2013-10-04 12:02:00,78.3,68.5,29.34,WNW,300,0.0,3.0,72,0.00,,,0.01,meteohub,2013-10-04 16:02:00,
2013-10-04 12:07:00,78.4,68.2,29.34,WNW,300,0.0,4.0,71,0.00,,,0.01,meteohub,2013-10-04 16:07:00,
2013-10-04 12:12:00,78.6,68.4,29.34,WNW,300,0.0,4.0,71,0.00,,,0.01,meteohub,2013-10-04 16:12:00,
2013-10-04 12:17:00,78.6,68.9,29.34,WNW,300,0.0,4.0,72,0.00,,,0.01,meteohub,2013-10-04 16:17:00,
2013-10-04 12:22:00,79.0,68.7,29.34,NNE,25,2.0,3.0,71,0.00,,,0.01,meteohub,2013-10-04 16:22:00,
2013-10-04 12:27:00,79.2,68.9,29.34,WNW,284,1.0,5.0,71,0.00,,,0.01,meteohub,2013-10-04 16:27:00,
2013-10-04 12:32:00,79.3,68.7,29.34,NW,304,0.0,5.0,70,0.00,,,0.01,meteohub,2013-10-04 16:32:00,
2013-10-04 12:37:00,79.5,68.9,29.34,SSE,150,0.0,5.0,70,0.00,,,0.01,meteohub,2013-10-04 16:37:00,
2013-10-04 12:42:00,80.1,69.4,29.34,WNW,296,1.0,4.0,70,0.00,,,0.01,meteohub,2013-10-04 16:42:00,
2013-10-04 12:47:00,80.8,70.2,29.33,WSW,238,1.0,3.0,70,0.00,,,0.01,meteohub,2013-10-04 16:47:00,
2013-10-04 12:53:00,81.1,69.6,29.33,WSW,254,1.0,6.0,68,0.00,,,0.01,meteohub,2013-10-04 16:53:00,
2013-10-04 12:57:00,81.5,70.0,29.33,East,100,0.0,6.0,68,0.00,,,0.01,meteohub,2013-10-04 16:57:00,
2013-10-04 13:03:00,82.0,70.3,29.32,SSE,161,1.0,6.0,68,0.00,,,0.01,meteohub,2013-10-04 17:03:00,
2013-10-04 13:08:00,82.4,70.3,29.32,SSE,155,0.0,4.0,67,0.00,,,0.01,meteohub,2013-10-04 17:08:00,
2013-10-04 13:13:00,82.8,70.7,29.31,WNW,293,0.0,3.0,67,0.00,,,0.01,meteohub,2013-10-04 17:13:00,
2013-10-04 13:18:00,83.1,70.2,29.31,NNW,332,1.0,3.0,65,0.00,,,0.01,meteohub,2013-10-04 17:18:00,
2013-10-04 13:23:00,83.7,71.6,29.31,NNW,332,0.0,3.0,67,0.00,,,0.01,meteohub,2013-10-04 17:23:00,
2013-10-04 13:28:00,83.8,70.9,29.31,SE,132,1.0,3.0,65,0.00,,,0.01,meteohub,2013-10-04 17:28:00,
2013-10-04 13:33:00,84.0,71.1,29.30,South,173,0.0,5.0,65,0.00,,,0.01,meteohub,2013-10-04 17:33:00,
2013-10-04 13:58:00,84.0,69.6,29.30,SSW,198,0.0,6.0,62,0.00,,,0.01,meteohub,2013-10-04 17:58:00,
2013-10-04 14:03:00,84.4,70.9,29.29,SSE,150,3.0,6.0,64,0.00,,,0.01,meteohub,2013-10-04 18:03:00,
2013-10-04 14:08:00,84.4,70.0,29.29,South,175,3.0,7.0,62,0.00,,,0.01,meteohub,2013-10-04 18:08:00,
2013-10-04 14:13:00,84.0,69.6,29.29,SSE,153,1.0,7.0,62,0.00,,,0.01,meteohub,2013-10-04 18:13:00,
2013-10-04 14:18:00,83.3,69.4,29.29,WSW,256,0.0,7.0,63,0.00,,,0.01,meteohub,2013-10-04 18:18:00,
2013-10-04 14:23:00,83.1,69.3,29.29,SSE,155,0.0,6.0,63,0.00,,,0.01,meteohub,2013-10-04 18:23:00,
2013-10-04 14:28:00,83.5,70.0,29.29,SSW,200,6.0,6.0,64,0.00,,,0.01,meteohub,2013-10-04 18:28:00,
2013-10-04 14:33:00,83.7,70.7,29.29,SSE,148,4.0,6.0,65,0.00,,,0.01,meteohub,2013-10-04 18:33:00,
2013-10-04 14:38:00,83.7,69.8,29.29,SSE,165,0.0,6.0,63,0.00,,,0.01,meteohub,2013-10-04 18:38:00,
2013-10-04 14:43:00,83.8,70.0,29.29,NW,312,1.0,6.0,63,0.00,,,0.01,meteohub,2013-10-04 18:43:00,
2013-10-04 14:48:00,84.0,69.6,29.29,South,183,0.0,6.0,62,0.00,,,0.01,meteohub,2013-10-04 18:48:00,
2013-10-04 14:53:00,84.0,69.6,29.29,SSE,168,7.0,7.0,62,0.00,,,0.01,meteohub,2013-10-04 18:53:00,
2013-10-04 14:58:00,84.0,69.1,29.29,South,177,3.0,9.0,61,0.00,,,0.01,meteohub,2013-10-04 18:58:00,
2013-10-04 15:04:00,83.7,69.3,29.29,SSE,148,0.0,9.0,62,0.00,,,0.01,meteohub,2013-10-04 19:04:00,
2013-10-04 15:09:00,83.7,70.2,29.29,ESE,107,1.0,9.0,64,0.00,,,0.01,meteohub,2013-10-04 19:09:00,
2013-10-04 15:14:00,83.8,70.3,29.29,NNW,345,0.0,5.0,64,0.00,,,0.01,meteohub,2013-10-04 19:14:00,
2013-10-04 15:19:00,84.0,69.6,29.29,South,172,0.0,11.0,62,0.00,,,0.01,meteohub,2013-10-04 19:19:00,
2013-10-04 15:24:00,83.8,70.0,29.29,South,178,0.0,11.0,63,0.00,,,0.01,meteohub,2013-10-04 19:24:00,
2013-10-04 15:29:00,83.8,70.0,29.29,SW,221,0.0,11.0,63,0.00,,,0.01,meteohub,2013-10-04 19:29:00,
2013-10-04 15:34:00,83.7,69.3,29.29,SE,143,0.0,4.0,62,0.00,,,0.01,meteohub,2013-10-04 19:34:00,
2013-10-04 15:39:00,83.5,69.1,29.29,SSE,160,0.0,3.0,62,0.00,,,0.01,meteohub,2013-10-04 19:39:00,
2013-10-04 15:44:00,83.1,69.3,29.29,South,182,0.0,5.0,63,0.00,,,0.01,meteohub,2013-10-04 19:44:00,
2013-10-04 15:49:00,82.9,69.1,29.29,South,175,0.0,5.0,63,0.00,,,0.01,meteohub,2013-10-04 19:49:00,
2013-10-04 15:54:00,82.8,69.3,29.29,South,182,0.0,5.0,64,0.00,,,0.01,meteohub,2013-10-04 19:54:00,
2013-10-04 15:59:00,82.8,69.8,29.29,South,190,1.0,5.0,65,0.00,,,0.01,meteohub,2013-10-04 19:59:00,
2013-10-04 16:04:00,82.8,69.3,29.29,NNE,19,0.0,6.0,64,0.00,,,0.01,meteohub,2013-10-04 20:04:00,
2013-10-04 16:09:00,82.8,69.3,29.29,SSE,167,0.0,6.0,64,0.00,,,0.01,meteohub,2013-10-04 20:09:00,
2013-10-04 16:14:00,82.8,69.8,29.29,SSE,167,0.0,6.0,65,0.00,,,0.01,meteohub,2013-10-04 20:14:00,
2013-10-04 16:19:00,82.8,69.3,29.29,NNW,329,0.0,5.0,64,0.00,,,0.01,meteohub,2013-10-04 20:19:00,
2013-10-04 16:24:00,82.8,69.8,29.29,NNW,329,0.0,4.0,65,0.00,,,0.01,meteohub,2013-10-04 20:24:00,
2013-10-04 16:29:00,82.8,69.8,29.29,NNW,329,0.0,4.0,65,0.00,,,0.01,meteohub,2013-10-04 20:29:00,
2013-10-04 16:34:00,82.9,70.0,29.29,NNW,329,0.0,4.0,65,0.00,,,0.01,meteohub,2013-10-04 20:34:00,
2013-10-04 16:39:00,82.9,69.4,29.29,NNW,330,0.0,2.0,64,0.00,,,0.01,meteohub,2013-10-04 20:39:00,
2013-10-04 16:44:00,83.3,70.3,29.29,NNW,330,0.0,2.0,65,0.00,,,0.01,meteohub,2013-10-04 20:44:00,
2013-10-04 16:49:00,83.5,69.6,29.29,NNW,330,0.0,2.0,63,0.00,,,0.01,meteohub,2013-10-04 20:49:00,
2013-10-04 16:54:00,83.7,70.2,29.29,NNW,330,2.0,2.0,64,0.00,,,0.01,meteohub,2013-10-04 20:54:00,
2013-10-04 16:59:00,83.8,69.4,29.29,NNW,330,0.0,2.0,62,0.00,,,0.01,meteohub,2013-10-04 20:59:00,
2013-10-04 17:04:00,83.8,69.4,29.28,NW,313,2.0,2.0,62,0.00,,,0.01,meteohub,2013-10-04 21:04:00,
2013-10-04 17:09:00,83.7,68.7,29.29,West,281,0.0,3.0,61,0.00,,,0.01,meteohub,2013-10-04 21:09:00,
2013-10-04 17:14:00,83.5,68.5,29.28,SSW,211,0.0,4.0,61,0.00,,,0.01,meteohub,2013-10-04 21:14:00,
2013-10-04 17:19:00,83.1,68.7,29.29,SSW,211,0.0,4.0,62,0.00,,,0.01,meteohub,2013-10-04 21:19:00,
2013-10-04 17:24:00,82.9,68.5,29.29,SSW,211,0.0,4.0,62,0.00,,,0.01,meteohub,2013-10-04 21:24:00,
2013-10-04 17:29:00,82.6,68.7,29.29,SSW,211,0.0,2.0,63,0.00,,,0.01,meteohub,2013-10-04 21:29:00,
2013-10-04 17:34:00,82.6,69.1,29.29,SSW,211,0.0,2.0,64,0.00,,,0.01,meteohub,2013-10-04 21:34:00,
2013-10-04 17:39:00,82.2,69.3,29.29,SSW,211,0.0,2.0,65,0.00,,,0.01,meteohub,2013-10-04 21:39:00,
2013-10-04 17:44:00,82.0,68.7,29.29,SSW,211,0.0,1.0,64,0.00,,,0.01,meteohub,2013-10-04 21:44:00,
2013-10-04 17:49:00,81.9,68.5,29.29,West,260,0.0,0.0,64,0.00,,,0.01,meteohub,2013-10-04 21:49:00,
2013-10-04 17:54:00,81.7,69.3,29.29,West,260,0.0,1.0,66,0.00,,,0.01,meteohub,2013-10-04 21:54:00,
2013-10-04 18:00:00,81.3,68.9,29.29,West,260,0.0,1.0,66,0.00,,,0.01,meteohub,2013-10-04 22:00:00,
2013-10-04 18:05:00,81.1,69.1,29.29,West,260,0.0,1.0,67,0.00,,,0.01,meteohub,2013-10-04 22:05:00,
2013-10-04 18:10:00,81.0,68.9,29.29,West,260,0.0,0.0,67,0.00,,,0.01,meteohub,2013-10-04 22:10:00,
2013-10-04 18:15:00,80.8,69.3,29.29,West,260,0.0,0.0,68,0.00,,,0.01,meteohub,2013-10-04 22:15:00,
2013-10-04 18:20:00,80.4,68.9,29.29,West,260,0.0,0.0,68,0.00,,,0.01,meteohub,2013-10-04 22:20:00,
2013-10-04 18:25:00,80.2,68.7,29.29,West,260,0.0,0.0,68,0.00,,,0.01,meteohub,2013-10-04 22:25:00,
2013-10-04 18:30:00,79.9,68.4,29.29,West,260,0.0,0.0,68,0.00,,,0.01,meteohub,2013-10-04 22:30:00,
2013-10-04 18:36:00,79.5,68.5,29.29,West,260,0.0,0.0,69,0.00,,,0.01,meteohub,2013-10-04 22:36:00,
2013-10-04 18:41:00,79.3,68.7,29.29,West,260,0.0,0.0,70,0.00,,,0.01,meteohub,2013-10-04 22:41:00,
2013-10-04 18:46:00,78.8,68.2,29.29,West,260,0.0,0.0,70,0.00,,,0.01,meteohub,2013-10-04 22:46:00,
2013-10-04 18:51:00,78.4,67.8,29.29,West,260,0.0,0.0,70,0.00,,,0.01,meteohub,2013-10-04 22:51:00,
2013-10-04 18:56:00,77.9,67.8,29.29,West,260,0.0,0.0,71,0.00,,,0.01,meteohub,2013-10-04 22:56:00,
2013-10-04 19:01:00,77.5,67.8,29.29,West,260,0.0,0.0,72,0.00,,,0.01,meteohub,2013-10-04 23:01:00,
2013-10-04 19:06:00,77.0,67.6,29.29,West,260,0.0,0.0,73,0.00,,,0.01,meteohub,2013-10-04 23:06:00,
2013-10-04 19:11:00,76.5,67.1,29.30,West,260,0.0,0.0,73,0.00,,,0.01,meteohub,2013-10-04 23:11:00,
2013-10-04 19:16:00,76.1,67.3,29.30,West,260,0.0,0.0,74,0.00,,,0.01,meteohub,2013-10-04 23:16:00,
2013-10-04 19:21:00,75.7,67.3,29.30,West,260,0.0,0.0,75,0.00,,,0.01,meteohub,2013-10-04 23:21:00,
2013-10-04 19:26:00,75.2,67.1,29.30,West,260,0.0,0.0,76,0.00,,,0.01,meteohub,2013-10-04 23:26:00,
2013-10-04 19:31:00,74.8,66.4,29.30,West,260,0.0,0.0,75,0.00,,,0.01,meteohub,2013-10-04 23:31:00,
2013-10-04 19:36:00,74.3,66.6,29.30,West,260,0.0,0.0,77,0.00,,,0.01,meteohub,2013-10-04 23:36:00,
2013-10-04 19:41:00,73.9,66.2,29.30,West,260,0.0,0.0,77,0.00,,,0.01,meteohub,2013-10-04 23:41:00,
2013-10-04 19:46:00,73.8,66.4,29.30,West,260,0.0,0.0,78,0.00,,,0.01,meteohub,2013-10-04 23:46:00,
2013-10-04 19:51:00,73.2,66.0,29.30,West,260,0.0,0.0,78,0.00,,,0.01,meteohub,2013-10-04 23:51:00,
2013-10-04 19:56:00,72.9,65.7,29.30,West,260,0.0,0.0,78,0.00,,,0.01,meteohub,2013-10-04 23:56:00,
2013-10-04 20:01:00,72.7,65.8,29.30,West,260,0.0,0.0,79,0.00,,,0.01,meteohub,2013-10-05 00:01:00,
2013-10-04 20:06:00,72.3,65.8,29.30,West,260,0.0,0.0,80,0.00,,,0.01,meteohub,2013-10-05 00:06:00,
2013-10-04 20:11:00,72.1,66.0,29.31,West,260,0.0,0.0,81,0.00,,,0.01,meteohub,2013-10-05 00:11:00,
2013-10-04 20:16:00,71.8,65.7,29.31,West,260,0.0,0.0,81,0.00,,,0.01,meteohub,2013-10-05 00:16:00,
2013-10-04 20:21:00,71.4,65.3,29.31,West,260,0.0,0.0,81,0.00,,,0.01,meteohub,2013-10-05 00:21:00,
2013-10-04 20:26:00,71.2,65.5,29.31,West,260,0.0,0.0,82,0.00,,,0.01,meteohub,2013-10-05 00:26:00,
2013-10-04 20:31:00,71.1,65.3,29.31,West,260,0.0,0.0,82,0.00,,,0.01,meteohub,2013-10-05 00:31:00,
2013-10-04 20:36:00,70.9,65.5,29.31,West,260,0.0,0.0,83,0.00,,,0.01,meteohub,2013-10-05 00:36:00,
2013-10-04 20:41:00,70.5,65.1,29.31,West,260,0.0,0.0,83,0.00,,,0.01,meteohub,2013-10-05 00:41:00,
2013-10-04 20:46:00,70.3,65.3,29.31,West,260,0.0,0.0,84,0.00,,,0.01,meteohub,2013-10-05 00:46:00,
2013-10-04 20:51:00,70.2,65.1,29.31,West,260,0.0,0.0,84,0.00,,,0.01,meteohub,2013-10-05 00:51:00,
2013-10-04 20:56:00,70.0,64.9,29.31,West,260,0.0,0.0,84,0.00,,,0.01,meteohub,2013-10-05 00:56:00,
2013-10-04 21:01:00,69.8,64.8,29.32,West,260,0.0,0.0,84,0.00,,,0.01,meteohub,2013-10-05 01:01:00,
2013-10-04 21:06:00,69.6,64.9,29.31,West,260,0.0,0.0,85,0.00,,,0.01,meteohub,2013-10-05 01:06:00,
2013-10-04 21:11:00,69.4,64.8,29.31,West,260,0.0,0.0,85,0.00,,,0.01,meteohub,2013-10-05 01:11:00,
2013-10-04 21:16:00,69.3,64.6,29.31,West,260,0.0,0.0,85,0.00,,,0.01,meteohub,2013-10-05 01:16:00,
2013-10-04 21:21:00,69.1,64.8,29.32,West,260,0.0,0.0,86,0.00,,,0.01,meteohub,2013-10-05 01:21:00,
2013-10-04 21:26:00,69.1,64.8,29.32,West,260,0.0,0.0,86,0.00,,,0.01,meteohub,2013-10-05 01:26:00,
2013-10-04 21:31:00,69.1,64.8,29.31,West,260,0.0,0.0,86,0.00,,,0.01,meteohub,2013-10-05 01:31:00,
2013-10-04 21:36:00,68.9,64.9,29.32,West,260,0.0,0.0,87,0.00,,,0.01,meteohub,2013-10-05 01:36:00,
2013-10-04 21:41:00,68.9,64.9,29.31,West,260,0.0,0.0,87,0.00,,,0.01,meteohub,2013-10-05 01:41:00,
2013-10-04 21:46:00,68.7,64.8,29.31,West,260,0.0,0.0,87,0.00,,,0.01,meteohub,2013-10-05 01:46:00,
2013-10-04 21:51:00,68.7,64.9,29.31,West,260,0.0,0.0,88,0.00,,,0.01,meteohub,2013-10-05 01:51:00,
2013-10-04 21:56:00,68.7,64.9,29.31,West,260,0.0,0.0,88,0.00,,,0.01,meteohub,2013-10-05 01:56:00,
2013-10-04 22:02:00,68.7,64.9,29.31,West,260,0.0,0.0,88,0.00,,,0.01,meteohub,2013-10-05 02:02:00,
2013-10-04 22:07:00,68.5,64.8,29.31,West,260,0.0,0.0,88,0.00,,,0.01,meteohub,2013-10-05 02:07:00,
2013-10-04 22:12:00,68.5,64.8,29.31,West,260,0.0,0.0,88,0.00,,,0.01,meteohub,2013-10-05 02:12:00,
2013-10-04 22:17:00,68.5,65.1,29.31,West,260,0.0,0.0,89,0.00,,,0.01,meteohub,2013-10-05 02:17:00,
2013-10-04 22:22:00,68.5,65.1,29.31,West,260,0.0,0.0,89,0.00,,,0.01,meteohub,2013-10-05 02:22:00,
2013-10-04 22:27:00,68.5,65.1,29.31,West,260,0.0,0.0,89,0.00,,,0.01,meteohub,2013-10-05 02:27:00,
2013-10-04 22:32:00,68.5,65.1,29.31,West,260,0.0,0.0,89,0.00,,,0.01,meteohub,2013-10-05 02:32:00,
2013-10-04 22:37:00,68.5,65.5,29.31,West,260,0.0,0.0,90,0.00,,,0.01,meteohub,2013-10-05 02:37:00,
2013-10-04 22:42:00,68.5,65.5,29.31,West,260,0.0,0.0,90,0.00,,,0.01,meteohub,2013-10-05 02:42:00,
2013-10-04 22:47:00,68.5,65.5,29.31,West,260,0.0,0.0,90,0.00,,,0.01,meteohub,2013-10-05 02:47:00,
2013-10-04 22:52:00,68.4,65.3,29.31,West,260,0.0,0.0,90,0.00,,,0.01,meteohub,2013-10-05 02:52:00,
2013-10-04 22:57:00,68.4,65.3,29.31,West,260,0.0,0.0,90,0.00,,,0.01,meteohub,2013-10-05 02:57:00,
2013-10-04 23:02:00,68.5,65.5,29.31,West,260,0.0,0.0,90,0.00,,,0.01,meteohub,2013-10-05 03:02:00,
2013-10-04 23:07:00,68.5,65.5,29.31,West,260,0.0,0.0,90,0.00,,,0.01,meteohub,2013-10-05 03:07:00,
2013-10-04 23:12:00,68.5,65.8,29.31,West,260,0.0,0.0,91,0.00,,,0.01,meteohub,2013-10-05 03:12:00,
2013-10-04 23:17:00,68.5,65.8,29.31,West,260,0.0,0.0,91,0.00,,,0.01,meteohub,2013-10-05 03:17:00,
2013-10-04 23:22:00,68.5,65.8,29.31,West,260,0.0,0.0,91,0.00,,,0.01,meteohub,2013-10-05 03:22:00,
2013-10-04 23:27:00,68.5,65.8,29.31,West,260,0.0,0.0,91,0.00,,,0.01,meteohub,2013-10-05 03:27:00,
2013-10-04 23:32:00,68.5,65.8,29.31,West,260,0.0,0.0,91,0.00,,,0.01,meteohub,2013-10-05 03:32:00,
2013-10-04 23:37:00,68.7,66.0,29.31,West,260,0.0,0.0,91,0.00,,,0.01,meteohub,2013-10-05 03:37:00,
2013-10-04 23:42:00,68.7,66.0,29.33,WNW,292,0.0,0.0,91,0.00,,,0.01,meteohub,2013-10-05 03:42:00,
2013-10-04 23:47:00,69.1,66.4,29.33,West,277,2.0,9.0,91,0.00,,,0.01,meteohub,2013-10-05 03:47:00,
2013-10-04 23:52:00,69.3,66.6,29.33,SSW,203,3.0,9.0,91,0.00,,,0.01,meteohub,2013-10-05 03:52:00,
2013-10-04 23:57:00,69.3,66.2,29.33,SSW,203,0.0,9.0,90,0.00,,,0.01,meteohub,2013-10-05 03:57:00,